sensor_id;sensor_type;location;lat;lon;timestamp;P1;durP1;ratioP1;P2;durP2;ratioP2
25988;SDS011;13778;48.236;9.894;2022-09-09T00:01:59;4.47;;;2.05;;
25988;SDS011;13778;48.236;9.894;2022-09-09T00:04:54;3.47;;;1.98;;
25988;SDS011;13778;48.236;9.894;2022-09-09T00:07:50;4.93;;;1.70;;
25988;SDS011;13778;48.236;9.894;2022-09-09T00:10:42;2.80;;;1.73;;
25988;SDS011;13778;48.236;9.894;2022-09-09T00:13:33;3.45;;;1.73;;
25988;SDS011;13778;48.236;9.894;2022-09-09T00:16:26;4.38;;;1.52;;
25988;SDS011;13778;48.236;9.894;2022-09-09T00:19:19;3.20;;;1.55;;
25988;SDS011;13778;48.236;9.894;2022-09-09T00:22:15;2.50;;;1.65;;
25988;SDS011;13778;48.236;9.894;2022-09-09T00:25:10;4.13;;;1.88;;
25988;SDS011;13778;48.236;9.894;2022-09-09T00:28:01;7.32;;;2.25;;
25988;SDS011;13778;48.236;9.894;2022-09-09T00:30:52;2.17;;;1.65;;
25988;SDS011;13778;48.236;9.894;2022-09-09T00:33:43;6.38;;;1.92;;
25988;SDS011;13778;48.236;9.894;2022-09-09T00:36:34;5.65;;;1.90;;
25988;SDS011;13778;48.236;9.894;2022-09-09T00:39:25;3.38;;;1.52;;
25988;SDS011;13778;48.236;9.894;2022-09-09T00:42:20;5.65;;;1.98;;
25988;SDS011;13778;48.236;9.894;2022-09-09T00:45:17;2.50;;;1.88;;
25988;SDS011;13778;48.236;9.894;2022-09-09T00:48:09;2.75;;;1.40;;
25988;SDS011;13778;48.236;9.894;2022-09-09T00:51:00;7.40;;;2.00;;
25988;SDS011;13778;48.236;9.894;2022-09-09T00:53:59;8.63;;;2.10;;
25988;SDS011;13778;48.236;9.894;2022-09-09T00:56:58;5.88;;;1.85;;
25988;SDS011;13778;48.236;9.894;2022-09-09T00:59:56;8.63;;;2.22;;
25988;SDS011;13778;48.236;9.894;2022-09-09T01:02:53;9.23;;;1.98;;
25988;SDS011;13778;48.236;9.894;2022-09-09T01:05:48;3.75;;;1.88;;
25988;SDS011;13778;48.236;9.894;2022-09-09T01:08:50;4.38;;;2.00;;
25988;SDS011;13778;48.236;9.894;2022-09-09T01:11:49;8.40;;;2.03;;
25988;SDS011;13778;48.236;9.894;2022-09-09T01:14:40;5.68;;;2.03;;
25988;SDS011;13778;48.236;9.894;2022-09-09T01:20:25;8.73;;;1.93;;
25988;SDS011;13778;48.236;9.894;2022-09-09T01:23:21;3.92;;;1.63;;
25988;SDS011;13778;48.236;9.894;2022-09-09T01:26:17;3.00;;;1.77;;
25988;SDS011;13778;48.236;9.894;2022-09-09T01:29:09;2.53;;;1.73;;
25988;SDS011;13778;48.236;9.894;2022-09-09T01:32:01;2.15;;;1.50;;
25988;SDS011;13778;48.236;9.894;2022-09-09T01:34:52;3.20;;;1.42;;
25988;SDS011;13778;48.236;9.894;2022-09-09T01:37:42;5.85;;;1.80;;
25988;SDS011;13778;48.236;9.894;2022-09-09T01:40:33;5.93;;;1.88;;
25988;SDS011;13778;48.236;9.894;2022-09-09T01:43:25;4.20;;;1.60;;
25988;SDS011;13778;48.236;9.894;2022-09-09T01:46:16;3.22;;;1.70;;
25988;SDS011;13778;48.236;9.894;2022-09-09T01:49:07;5.17;;;1.93;;
25988;SDS011;13778;48.236;9.894;2022-09-09T01:51:58;4.37;;;2.00;;
25988;SDS011;13778;48.236;9.894;2022-09-09T01:54:49;5.00;;;1.50;;
25988;SDS011;13778;48.236;9.894;2022-09-09T01:57:41;7.78;;;1.52;;
25988;SDS011;13778;48.236;9.894;2022-09-09T02:00:39;4.30;;;1.60;;
25988;SDS011;13778;48.236;9.894;2022-09-09T02:03:32;3.95;;;1.90;;
25988;SDS011;13778;48.236;9.894;2022-09-09T02:06:26;4.10;;;1.50;;
25988;SDS011;13778;48.236;9.894;2022-09-09T02:09:17;5.75;;;2.08;;
25988;SDS011;13778;48.236;9.894;2022-09-09T02:15:03;4.03;;;1.53;;
25988;SDS011;13778;48.236;9.894;2022-09-09T02:17:55;5.78;;;2.28;;
25988;SDS011;13778;48.236;9.894;2022-09-09T02:20:48;2.70;;;1.60;;
25988;SDS011;13778;48.236;9.894;2022-09-09T02:23:38;2.30;;;1.50;;
25988;SDS011;13778;48.236;9.894;2022-09-09T02:26:29;8.00;;;2.00;;
25988;SDS011;13778;48.236;9.894;2022-09-09T02:29:22;4.13;;;1.65;;
25988;SDS011;13778;48.236;9.894;2022-09-09T02:32:15;3.75;;;1.95;;
25988;SDS011;13778;48.236;9.894;2022-09-09T02:35:09;3.28;;;2.00;;
25988;SDS011;13778;48.236;9.894;2022-09-09T02:38:01;6.85;;;1.77;;
25988;SDS011;13778;48.236;9.894;2022-09-09T02:40:53;6.97;;;1.90;;
25988;SDS011;13778;48.236;9.894;2022-09-09T02:43:44;7.65;;;1.92;;
25988;SDS011;13778;48.236;9.894;2022-09-09T02:46:36;5.15;;;1.48;;
25988;SDS011;13778;48.236;9.894;2022-09-09T02:49:33;5.25;;;2.10;;
25988;SDS011;13778;48.236;9.894;2022-09-09T02:52:32;5.65;;;1.77;;
25988;SDS011;13778;48.236;9.894;2022-09-09T02:55:27;4.75;;;2.10;;
25988;SDS011;13778;48.236;9.894;2022-09-09T02:58:21;6.53;;;2.20;;
25988;SDS011;13778;48.236;9.894;2022-09-09T03:01:12;6.28;;;2.25;;
25988;SDS011;13778;48.236;9.894;2022-09-09T03:04:03;4.40;;;2.60;;
25988;SDS011;13778;48.236;9.894;2022-09-09T03:06:54;7.82;;;3.28;;
25988;SDS011;13778;48.236;9.894;2022-09-09T03:09:46;3.33;;;2.58;;
25988;SDS011;13778;48.236;9.894;2022-09-09T03:15:27;4.45;;;2.13;;
25988;SDS011;13778;48.236;9.894;2022-09-09T03:18:20;9.05;;;2.83;;
25988;SDS011;13778;48.236;9.894;2022-09-09T03:21:10;3.65;;;2.42;;
25988;SDS011;13778;48.236;9.894;2022-09-09T03:24:00;4.82;;;2.35;;
25988;SDS011;13778;48.236;9.894;2022-09-09T03:26:53;5.13;;;2.67;;
25988;SDS011;13778;48.236;9.894;2022-09-09T03:29:44;4.88;;;3.00;;
25988;SDS011;13778;48.236;9.894;2022-09-09T03:32:36;5.93;;;2.80;;
25988;SDS011;13778;48.236;9.894;2022-09-09T03:35:27;5.32;;;2.65;;
25988;SDS011;13778;48.236;9.894;2022-09-09T03:38:18;7.28;;;3.40;;
25988;SDS011;13778;48.236;9.894;2022-09-09T03:41:09;6.75;;;3.03;;
25988;SDS011;13778;48.236;9.894;2022-09-09T03:44:01;4.50;;;3.05;;
25988;SDS011;13778;48.236;9.894;2022-09-09T03:46:52;6.82;;;2.67;;
25988;SDS011;13778;48.236;9.894;2022-09-09T03:49:43;6.50;;;2.50;;
25988;SDS011;13778;48.236;9.894;2022-09-09T03:52:34;5.53;;;2.95;;
25988;SDS011;13778;48.236;9.894;2022-09-09T03:55:24;8.27;;;3.03;;
25988;SDS011;13778;48.236;9.894;2022-09-09T03:58:15;4.40;;;2.63;;
25988;SDS011;13778;48.236;9.894;2022-09-09T04:01:09;6.88;;;2.53;;
25988;SDS011;13778;48.236;9.894;2022-09-09T04:04:02;5.35;;;2.53;;
25988;SDS011;13778;48.236;9.894;2022-09-09T04:06:52;6.13;;;2.22;;
25988;SDS011;13778;48.236;9.894;2022-09-09T04:09:43;5.72;;;2.28;;
25988;SDS011;13778;48.236;9.894;2022-09-09T04:12:33;4.43;;;2.50;;
25988;SDS011;13778;48.236;9.894;2022-09-09T04:15:23;5.57;;;2.30;;
25988;SDS011;13778;48.236;9.894;2022-09-09T04:18:15;5.28;;;2.65;;
25988;SDS011;13778;48.236;9.894;2022-09-09T04:21:06;8.23;;;2.70;;
25988;SDS011;13778;48.236;9.894;2022-09-09T04:23:57;4.25;;;2.40;;
25988;SDS011;13778;48.236;9.894;2022-09-09T04:26:47;6.32;;;2.53;;
25988;SDS011;13778;48.236;9.894;2022-09-09T04:29:38;4.30;;;2.33;;
25988;SDS011;13778;48.236;9.894;2022-09-09T04:32:28;3.28;;;2.67;;
25988;SDS011;13778;48.236;9.894;2022-09-09T04:35:20;5.30;;;2.25;;
25988;SDS011;13778;48.236;9.894;2022-09-09T04:38:11;7.18;;;2.90;;
25988;SDS011;13778;48.236;9.894;2022-09-09T04:41:01;2.58;;;2.38;;
25988;SDS011;13778;48.236;9.894;2022-09-09T04:43:52;4.47;;;2.28;;
25988;SDS011;13778;48.236;9.894;2022-09-09T04:46:43;11.43;;;2.53;;
25988;SDS011;13778;48.236;9.894;2022-09-09T04:49:34;10.93;;;2.42;;
25988;SDS011;13778;48.236;9.894;2022-09-09T04:52:26;5.43;;;2.85;;
25988;SDS011;13778;48.236;9.894;2022-09-09T04:55:17;9.35;;;2.88;;
25988;SDS011;13778;48.236;9.894;2022-09-09T04:58:08;10.43;;;3.00;;
25988;SDS011;13778;48.236;9.894;2022-09-09T05:01:05;5.20;;;2.22;;
25988;SDS011;13778;48.236;9.894;2022-09-09T05:03:55;3.75;;;2.30;;
25988;SDS011;13778;48.236;9.894;2022-09-09T05:06:46;5.03;;;2.42;;
25988;SDS011;13778;48.236;9.894;2022-09-09T05:09:38;3.63;;;2.80;;
25988;SDS011;13778;48.236;9.894;2022-09-09T05:15:18;5.13;;;2.50;;
25988;SDS011;13778;48.236;9.894;2022-09-09T05:18:09;7.05;;;2.72;;
25988;SDS011;13778;48.236;9.894;2022-09-09T05:21:00;5.60;;;2.97;;
25988;SDS011;13778;48.236;9.894;2022-09-09T05:23:50;6.40;;;3.08;;
25988;SDS011;13778;48.236;9.894;2022-09-09T05:26:42;9.00;;;3.03;;
25988;SDS011;13778;48.236;9.894;2022-09-09T05:32:23;7.13;;;2.95;;
25988;SDS011;13778;48.236;9.894;2022-09-09T05:35:13;6.25;;;2.97;;
25988;SDS011;13778;48.236;9.894;2022-09-09T05:38:04;8.25;;;3.25;;
25988;SDS011;13778;48.236;9.894;2022-09-09T05:40:55;5.35;;;2.95;;
25988;SDS011;13778;48.236;9.894;2022-09-09T05:43:47;6.00;;;3.13;;
25988;SDS011;13778;48.236;9.894;2022-09-09T05:46:38;8.13;;;3.63;;
25988;SDS011;13778;48.236;9.894;2022-09-09T05:49:28;5.45;;;3.15;;
25988;SDS011;13778;48.236;9.894;2022-09-09T05:52:19;6.10;;;3.15;;
25988;SDS011;13778;48.236;9.894;2022-09-09T05:55:10;8.07;;;3.63;;
25988;SDS011;13778;48.236;9.894;2022-09-09T05:58:00;5.28;;;2.83;;
25988;SDS011;13778;48.236;9.894;2022-09-09T06:00:53;8.93;;;3.33;;
25988;SDS011;13778;48.236;9.894;2022-09-09T06:03:50;4.97;;;3.03;;
25988;SDS011;13778;48.236;9.894;2022-09-09T06:06:41;5.80;;;2.63;;
25988;SDS011;13778;48.236;9.894;2022-09-09T06:09:32;5.38;;;2.45;;
25988;SDS011;13778;48.236;9.894;2022-09-09T06:12:22;5.55;;;2.70;;
25988;SDS011;13778;48.236;9.894;2022-09-09T06:15:13;6.75;;;3.03;;
25988;SDS011;13778;48.236;9.894;2022-09-09T06:18:05;5.68;;;2.85;;
25988;SDS011;13778;48.236;9.894;2022-09-09T06:23:46;8.60;;;3.17;;
25988;SDS011;13778;48.236;9.894;2022-09-09T06:26:37;7.35;;;3.90;;
25988;SDS011;13778;48.236;9.894;2022-09-09T06:29:30;7.18;;;3.45;;
25988;SDS011;13778;48.236;9.894;2022-09-09T06:32:20;8.45;;;3.92;;
25988;SDS011;13778;48.236;9.894;2022-09-09T06:35:12;8.35;;;3.30;;
25988;SDS011;13778;48.236;9.894;2022-09-09T06:38:03;8.50;;;2.85;;
25988;SDS011;13778;48.236;9.894;2022-09-09T06:40:53;5.82;;;2.92;;
25988;SDS011;13778;48.236;9.894;2022-09-09T06:43:44;5.10;;;2.45;;
25988;SDS011;13778;48.236;9.894;2022-09-09T06:46:35;7.72;;;3.55;;
25988;SDS011;13778;48.236;9.894;2022-09-09T06:49:25;4.50;;;3.40;;
25988;SDS011;13778;48.236;9.894;2022-09-09T06:52:17;7.22;;;3.25;;
25988;SDS011;13778;48.236;9.894;2022-09-09T06:55:08;7.32;;;3.80;;
25988;SDS011;13778;48.236;9.894;2022-09-09T06:57:58;7.30;;;3.63;;
25988;SDS011;13778;48.236;9.894;2022-09-09T07:00:49;7.03;;;3.50;;
25988;SDS011;13778;48.236;9.894;2022-09-09T07:03:40;7.32;;;4.03;;
25988;SDS011;13778;48.236;9.894;2022-09-09T07:06:31;7.93;;;4.03;;
25988;SDS011;13778;48.236;9.894;2022-09-09T07:09:23;6.05;;;3.03;;
25988;SDS011;13778;48.236;9.894;2022-09-09T07:15:04;5.85;;;3.17;;
25988;SDS011;13778;48.236;9.894;2022-09-09T07:17:55;9.10;;;3.40;;
25988;SDS011;13778;48.236;9.894;2022-09-09T07:20:52;8.90;;;3.20;;
25988;SDS011;13778;48.236;9.894;2022-09-09T07:23:43;6.45;;;3.00;;
25988;SDS011;13778;48.236;9.894;2022-09-09T07:26:35;6.32;;;3.10;;
25988;SDS011;13778;48.236;9.894;2022-09-09T07:29:25;9.15;;;2.92;;
25988;SDS011;13778;48.236;9.894;2022-09-09T07:32:16;7.05;;;2.45;;
25988;SDS011;13778;48.236;9.894;2022-09-09T07:35:07;7.23;;;2.60;;
25988;SDS011;13778;48.236;9.894;2022-09-09T07:37:57;5.30;;;2.85;;
25988;SDS011;13778;48.236;9.894;2022-09-09T07:40:48;4.10;;;2.47;;
25988;SDS011;13778;48.236;9.894;2022-09-09T07:43:40;7.75;;;2.05;;
25988;SDS011;13778;48.236;9.894;2022-09-09T07:46:30;4.05;;;1.90;;
25988;SDS011;13778;48.236;9.894;2022-09-09T07:49:21;5.00;;;2.10;;
25988;SDS011;13778;48.236;9.894;2022-09-09T07:52:11;7.22;;;1.80;;
25988;SDS011;13778;48.236;9.894;2022-09-09T07:55:02;3.72;;;2.00;;
25988;SDS011;13778;48.236;9.894;2022-09-09T07:57:53;4.85;;;2.03;;
25988;SDS011;13778;48.236;9.894;2022-09-09T08:00:47;3.97;;;1.73;;
25988;SDS011;13778;48.236;9.894;2022-09-09T08:03:38;3.15;;;1.73;;
25988;SDS011;13778;48.236;9.894;2022-09-09T08:06:30;5.90;;;1.80;;
25988;SDS011;13778;48.236;9.894;2022-09-09T08:09:22;6.88;;;1.52;;
25988;SDS011;13778;48.236;9.894;2022-09-09T08:15:04;3.95;;;1.50;;
25988;SDS011;13778;48.236;9.894;2022-09-09T08:17:57;4.80;;;2.03;;
25988;SDS011;13778;48.236;9.894;2022-09-09T08:20:47;3.90;;;1.60;;
25988;SDS011;13778;48.236;9.894;2022-09-09T08:23:37;3.47;;;1.63;;
25988;SDS011;13778;48.236;9.894;2022-09-09T08:26:28;4.28;;;1.60;;
25988;SDS011;13778;48.236;9.894;2022-09-09T08:29:19;22.20;;;10.05;;
25988;SDS011;13778;48.236;9.894;2022-09-09T08:32:10;6.75;;;2.22;;
25988;SDS011;13778;48.236;9.894;2022-09-09T08:35:01;27.15;;;12.50;;
25988;SDS011;13778;48.236;9.894;2022-09-09T08:40:42;15.45;;;10.10;;
25988;SDS011;13778;48.236;9.894;2022-09-09T08:43:35;23.83;;;12.75;;
25988;SDS011;13778;48.236;9.894;2022-09-09T08:46:26;18.05;;;10.85;;
25988;SDS011;13778;48.236;9.894;2022-09-09T08:49:23;15.27;;;6.50;;
25988;SDS011;13778;48.236;9.894;2022-09-09T08:52:19;12.05;;;4.80;;
25988;SDS011;13778;48.236;9.894;2022-09-09T08:55:14;2.47;;;1.60;;
25988;SDS011;13778;48.236;9.894;2022-09-09T08:58:09;3.45;;;1.50;;
25988;SDS011;13778;48.236;9.894;2022-09-09T09:01:03;4.75;;;1.67;;
25988;SDS011;13778;48.236;9.894;2022-09-09T09:04:00;3.58;;;1.23;;
25988;SDS011;13778;48.236;9.894;2022-09-09T09:06:54;4.70;;;1.15;;
25988;SDS011;13778;48.236;9.894;2022-09-09T09:09:50;3.60;;;1.58;;
25988;SDS011;13778;48.236;9.894;2022-09-09T09:12:43;3.25;;;1.27;;
25988;SDS011;13778;48.236;9.894;2022-09-09T09:15:37;3.88;;;1.55;;
25988;SDS011;13778;48.236;9.894;2022-09-09T09:18:27;2.87;;;1.10;;
25988;SDS011;13778;48.236;9.894;2022-09-09T09:21:19;6.00;;;1.65;;
25988;SDS011;13778;48.236;9.894;2022-09-09T09:24:14;6.05;;;1.65;;
25988;SDS011;13778;48.236;9.894;2022-09-09T09:27:11;2.83;;;1.67;;
25988;SDS011;13778;48.236;9.894;2022-09-09T09:30:05;4.97;;;1.85;;
25988;SDS011;13778;48.236;9.894;2022-09-09T09:32:56;4.05;;;1.67;;
25988;SDS011;13778;48.236;9.894;2022-09-09T09:35:48;5.28;;;1.48;;
25988;SDS011;13778;48.236;9.894;2022-09-09T09:38:38;4.93;;;1.55;;
25988;SDS011;13778;48.236;9.894;2022-09-09T09:41:30;5.00;;;1.42;;
25988;SDS011;13778;48.236;9.894;2022-09-09T09:47:13;2.53;;;1.20;;
25988;SDS011;13778;48.236;9.894;2022-09-09T09:50:04;3.00;;;1.27;;
25988;SDS011;13778;48.236;9.894;2022-09-09T09:52:55;4.03;;;1.30;;
25988;SDS011;13778;48.236;9.894;2022-09-09T09:55:48;4.00;;;1.27;;
25988;SDS011;13778;48.236;9.894;2022-09-09T09:58:48;5.55;;;1.17;;
25988;SDS011;13778;48.236;9.894;2022-09-09T10:01:39;2.92;;;1.40;;
25988;SDS011;13778;48.236;9.894;2022-09-09T10:04:31;4.32;;;1.63;;
25988;SDS011;13778;48.236;9.894;2022-09-09T10:07:22;4.65;;;1.60;;
25988;SDS011;13778;48.236;9.894;2022-09-09T10:10:15;4.25;;;1.65;;
25988;SDS011;13778;48.236;9.894;2022-09-09T10:13:10;6.15;;;1.15;;
25988;SDS011;13778;48.236;9.894;2022-09-09T10:16:07;4.13;;;1.08;;
25988;SDS011;13778;48.236;9.894;2022-09-09T10:19:00;3.67;;;1.30;;
25988;SDS011;13778;48.236;9.894;2022-09-09T10:25:21;1.88;;;0.90;;
25988;SDS011;13778;48.236;9.894;2022-09-09T10:28:19;4.57;;;1.02;;
25988;SDS011;13778;48.236;9.894;2022-09-09T10:31:16;2.40;;;1.10;;
25988;SDS011;13778;48.236;9.894;2022-09-09T10:34:11;1.60;;;0.88;;
25988;SDS011;13778;48.236;9.894;2022-09-09T10:37:05;4.28;;;1.10;;
25988;SDS011;13778;48.236;9.894;2022-09-09T10:40:02;5.38;;;1.30;;
25988;SDS011;13778;48.236;9.894;2022-09-09T10:42:58;3.95;;;0.95;;
25988;SDS011;13778;48.236;9.894;2022-09-09T10:45:54;5.90;;;1.52;;
25988;SDS011;13778;48.236;9.894;2022-09-09T10:48:50;3.63;;;1.00;;
25988;SDS011;13778;48.236;9.894;2022-09-09T10:51:46;1.25;;;0.70;;
25988;SDS011;13778;48.236;9.894;2022-09-09T10:54:44;4.28;;;1.00;;
25988;SDS011;13778;48.236;9.894;2022-09-09T10:57:36;5.47;;;0.90;;
25988;SDS011;13778;48.236;9.894;2022-09-09T11:00:34;2.60;;;0.73;;
25988;SDS011;13778;48.236;9.894;2022-09-09T11:03:27;2.03;;;0.60;;
25988;SDS011;13778;48.236;9.894;2022-09-09T11:06:19;1.88;;;0.80;;
25988;SDS011;13778;48.236;9.894;2022-09-09T11:09:11;2.30;;;1.00;;
25988;SDS011;13778;48.236;9.894;2022-09-09T11:12:04;4.13;;;0.90;;
25988;SDS011;13778;48.236;9.894;2022-09-09T11:14:57;2.53;;;1.45;;
25988;SDS011;13778;48.236;9.894;2022-09-09T11:17:52;2.15;;;0.65;;
25988;SDS011;13778;48.236;9.894;2022-09-09T11:20:44;2.78;;;0.93;;
25988;SDS011;13778;48.236;9.894;2022-09-09T11:23:37;1.20;;;0.98;;
25988;SDS011;13778;48.236;9.894;2022-09-09T11:26:30;2.30;;;1.00;;
25988;SDS011;13778;48.236;9.894;2022-09-09T11:29:36;3.50;;;1.23;;
25988;SDS011;13778;48.236;9.894;2022-09-09T11:32:34;6.65;;;1.50;;
25988;SDS011;13778;48.236;9.894;2022-09-09T11:35:33;4.03;;;1.27;;
25988;SDS011;13778;48.236;9.894;2022-09-09T11:38:26;2.05;;;0.73;;
25988;SDS011;13778;48.236;9.894;2022-09-09T11:41:17;4.72;;;1.15;;
25988;SDS011;13778;48.236;9.894;2022-09-09T11:44:10;1.83;;;0.65;;
25988;SDS011;13778;48.236;9.894;2022-09-09T11:49:51;4.57;;;0.77;;
25988;SDS011;13778;48.236;9.894;2022-09-09T11:52:44;3.75;;;1.00;;
25988;SDS011;13778;48.236;9.894;2022-09-09T11:55:35;4.28;;;1.15;;
25988;SDS011;13778;48.236;9.894;2022-09-09T11:58:26;2.83;;;0.77;;
25988;SDS011;13778;48.236;9.894;2022-09-09T12:01:33;2.15;;;1.08;;
25988;SDS011;13778;48.236;9.894;2022-09-09T12:04:29;3.40;;;1.10;;
25988;SDS011;13778;48.236;9.894;2022-09-09T12:07:25;4.30;;;1.00;;
25988;SDS011;13778;48.236;9.894;2022-09-09T12:10:23;8.43;;;1.15;;
25988;SDS011;13778;48.236;9.894;2022-09-09T12:13:15;2.08;;;0.90;;
25988;SDS011;13778;48.236;9.894;2022-09-09T12:16:06;2.97;;;1.00;;
25988;SDS011;13778;48.236;9.894;2022-09-09T12:19:18;4.57;;;1.20;;
25988;SDS011;13778;48.236;9.894;2022-09-09T12:22:11;3.05;;;1.10;;
25988;SDS011;13778;48.236;9.894;2022-09-09T12:25:08;3.00;;;0.85;;
25988;SDS011;13778;48.236;9.894;2022-09-09T12:28:04;1.88;;;0.90;;
25988;SDS011;13778;48.236;9.894;2022-09-09T12:30:56;2.88;;;0.80;;
25988;SDS011;13778;48.236;9.894;2022-09-09T12:33:48;3.45;;;1.30;;
25988;SDS011;13778;48.236;9.894;2022-09-09T12:36:39;4.35;;;0.90;;
25988;SDS011;13778;48.236;9.894;2022-09-09T12:39:31;4.85;;;1.27;;
25988;SDS011;13778;48.236;9.894;2022-09-09T12:42:23;3.22;;;1.00;;
25988;SDS011;13778;48.236;9.894;2022-09-09T12:45:19;4.10;;;1.80;;
25988;SDS011;13778;48.236;9.894;2022-09-09T12:48:09;1.88;;;0.85;;
25988;SDS011;13778;48.236;9.894;2022-09-09T12:51:01;4.40;;;1.00;;
25988;SDS011;13778;48.236;9.894;2022-09-09T12:53:52;2.05;;;1.10;;
25988;SDS011;13778;48.236;9.894;2022-09-09T12:56:45;3.03;;;1.17;;
25988;SDS011;13778;48.236;9.894;2022-09-09T12:59:36;2.53;;;1.00;;
25988;SDS011;13778;48.236;9.894;2022-09-09T13:02:28;2.53;;;0.80;;
25988;SDS011;13778;48.236;9.894;2022-09-09T13:05:20;4.32;;;0.93;;
25988;SDS011;13778;48.236;9.894;2022-09-09T13:08:11;4.15;;;1.00;;
25988;SDS011;13778;48.236;9.894;2022-09-09T13:11:03;5.93;;;1.08;;
25988;SDS011;13778;48.236;9.894;2022-09-09T13:13:54;5.28;;;1.67;;
25988;SDS011;13778;48.236;9.894;2022-09-09T13:16:54;3.50;;;1.00;;
25988;SDS011;13778;48.236;9.894;2022-09-09T13:19:47;4.63;;;1.30;;
25988;SDS011;13778;48.236;9.894;2022-09-09T13:22:39;1.88;;;0.80;;
25988;SDS011;13778;48.236;9.894;2022-09-09T13:25:30;3.03;;;1.25;;
25988;SDS011;13778;48.236;9.894;2022-09-09T13:28:21;2.97;;;0.85;;
25988;SDS011;13778;48.236;9.894;2022-09-09T13:31:19;3.15;;;1.08;;
25988;SDS011;13778;48.236;9.894;2022-09-09T13:34:11;3.10;;;1.02;;
25988;SDS011;13778;48.236;9.894;2022-09-09T13:37:03;2.50;;;1.27;;
25988;SDS011;13778;48.236;9.894;2022-09-09T13:39:55;0.88;;;0.70;;
25988;SDS011;13778;48.236;9.894;2022-09-09T13:42:45;4.03;;;0.70;;
25988;SDS011;13778;48.236;9.894;2022-09-09T13:45:36;4.00;;;1.00;;
25988;SDS011;13778;48.236;9.894;2022-09-09T13:48:26;4.93;;;1.10;;
25988;SDS011;13778;48.236;9.894;2022-09-09T13:51:22;2.00;;;0.70;;
25988;SDS011;13778;48.236;9.894;2022-09-09T13:54:19;2.75;;;1.10;;
25988;SDS011;13778;48.236;9.894;2022-09-09T13:57:14;2.08;;;0.80;;
25988;SDS011;13778;48.236;9.894;2022-09-09T14:00:05;1.27;;;0.90;;
25988;SDS011;13778;48.236;9.894;2022-09-09T14:02:57;2.80;;;0.80;;
25988;SDS011;13778;48.236;9.894;2022-09-09T14:05:51;5.45;;;0.98;;
25988;SDS011;13778;48.236;9.894;2022-09-09T14:08:42;2.72;;;0.98;;
25988;SDS011;13778;48.236;9.894;2022-09-09T14:11:36;1.50;;;0.98;;
25988;SDS011;13778;48.236;9.894;2022-09-09T14:17:16;3.47;;;0.95;;
25988;SDS011;13778;48.236;9.894;2022-09-09T14:20:07;3.80;;;0.85;;
25988;SDS011;13778;48.236;9.894;2022-09-09T14:22:58;2.72;;;1.02;;
25988;SDS011;13778;48.236;9.894;2022-09-09T14:25:49;3.70;;;1.13;;
25988;SDS011;13778;48.236;9.894;2022-09-09T14:28:41;2.08;;;0.68;;
25988;SDS011;13778;48.236;9.894;2022-09-09T14:31:32;5.97;;;1.40;;
25988;SDS011;13778;48.236;9.894;2022-09-09T14:34:22;2.08;;;0.90;;
25988;SDS011;13778;48.236;9.894;2022-09-09T14:37:13;6.65;;;1.15;;
25988;SDS011;13778;48.236;9.894;2022-09-09T14:40:03;2.83;;;0.77;;
25988;SDS011;13778;48.236;9.894;2022-09-09T14:42:54;2.15;;;1.00;;
25988;SDS011;13778;48.236;9.894;2022-09-09T14:45:46;4.10;;;1.03;;
25988;SDS011;13778;48.236;9.894;2022-09-09T14:48:40;2.55;;;0.80;;
25988;SDS011;13778;48.236;9.894;2022-09-09T14:51:30;2.85;;;0.95;;
25988;SDS011;13778;48.236;9.894;2022-09-09T14:54:21;2.45;;;1.00;;
25988;SDS011;13778;48.236;9.894;2022-09-09T14:57:12;1.77;;;0.80;;
25988;SDS011;13778;48.236;9.894;2022-09-09T15:00:03;5.63;;;1.25;;
25988;SDS011;13778;48.236;9.894;2022-09-09T15:02:55;3.22;;;0.80;;
25988;SDS011;13778;48.236;9.894;2022-09-09T15:08:36;3.45;;;0.80;;
25988;SDS011;13778;48.236;9.894;2022-09-09T15:11:26;3.38;;;0.73;;
25988;SDS011;13778;48.236;9.894;2022-09-09T15:14:19;1.92;;;0.75;;
25988;SDS011;13778;48.236;9.894;2022-09-09T15:17:09;4.70;;;1.17;;
25988;SDS011;13778;48.236;9.894;2022-09-09T15:20:02;3.63;;;1.60;;
25988;SDS011;13778;48.236;9.894;2022-09-09T15:22:54;4.47;;;0.90;;
25988;SDS011;13778;48.236;9.894;2022-09-09T15:25:52;3.80;;;1.00;;
25988;SDS011;13778;48.236;9.894;2022-09-09T15:28:43;2.03;;;0.90;;
25988;SDS011;13778;48.236;9.894;2022-09-09T15:31:34;3.83;;;1.50;;
25988;SDS011;13778;48.236;9.894;2022-09-09T15:34:24;1.92;;;0.93;;
25988;SDS011;13778;48.236;9.894;2022-09-09T15:37:16;3.53;;;0.77;;
25988;SDS011;13778;48.236;9.894;2022-09-09T15:42:57;5.40;;;1.08;;
25988;SDS011;13778;48.236;9.894;2022-09-09T15:45:49;5.22;;;0.70;;
25988;SDS011;13778;48.236;9.894;2022-09-09T15:48:42;3.63;;;0.80;;
25988;SDS011;13778;48.236;9.894;2022-09-09T15:51:33;5.68;;;1.45;;
25988;SDS011;13778;48.236;9.894;2022-09-09T15:54:25;2.13;;;0.90;;
25988;SDS011;13778;48.236;9.894;2022-09-09T15:57:16;3.50;;;1.27;;
25988;SDS011;13778;48.236;9.894;2022-09-09T16:00:07;7.10;;;1.40;;
25988;SDS011;13778;48.236;9.894;2022-09-09T16:02:58;2.40;;;0.70;;
25988;SDS011;13778;48.236;9.894;2022-09-09T16:05:50;1.33;;;0.80;;
25988;SDS011;13778;48.236;9.894;2022-09-09T16:11:32;2.28;;;1.02;;
25988;SDS011;13778;48.236;9.894;2022-09-09T16:14:23;1.80;;;1.05;;
25988;SDS011;13778;48.236;9.894;2022-09-09T16:17:14;2.33;;;0.80;;
25988;SDS011;13778;48.236;9.894;2022-09-09T16:20:05;4.68;;;0.70;;
25988;SDS011;13778;48.236;9.894;2022-09-09T16:22:57;1.67;;;0.60;;
25988;SDS011;13778;48.236;9.894;2022-09-09T16:25:52;5.22;;;1.27;;
25988;SDS011;13778;48.236;9.894;2022-09-09T16:28:44;3.92;;;0.57;;
25988;SDS011;13778;48.236;9.894;2022-09-09T16:31:36;2.88;;;0.70;;
25988;SDS011;13778;48.236;9.894;2022-09-09T16:34:26;3.42;;;0.80;;
25988;SDS011;13778;48.236;9.894;2022-09-09T16:37:17;6.45;;;1.77;;
25988;SDS011;13778;48.236;9.894;2022-09-09T16:40:08;11.38;;;2.28;;
25988;SDS011;13778;48.236;9.894;2022-09-09T16:42:58;2.97;;;1.00;;
25988;SDS011;13778;48.236;9.894;2022-09-09T16:45:50;1.90;;;1.15;;
25988;SDS011;13778;48.236;9.894;2022-09-09T16:48:41;1.27;;;0.55;;
25988;SDS011;13778;48.236;9.894;2022-09-09T16:51:32;1.03;;;0.90;;
25988;SDS011;13778;48.236;9.894;2022-09-09T16:54:23;2.88;;;0.75;;
25988;SDS011;13778;48.236;9.894;2022-09-09T16:57:15;4.18;;;1.02;;
25988;SDS011;13778;48.236;9.894;2022-09-09T17:00:07;3.60;;;0.90;;
25988;SDS011;13778;48.236;9.894;2022-09-09T17:02:59;1.60;;;0.80;;
25988;SDS011;13778;48.236;9.894;2022-09-09T17:08:39;1.65;;;0.88;;
25988;SDS011;13778;48.236;9.894;2022-09-09T17:11:30;2.45;;;1.05;;
25988;SDS011;13778;48.236;9.894;2022-09-09T17:14:21;1.90;;;1.05;;
25988;SDS011;13778;48.236;9.894;2022-09-09T17:17:13;1.85;;;1.13;;
25988;SDS011;13778;48.236;9.894;2022-09-09T17:20:06;3.70;;;0.80;;
25988;SDS011;13778;48.236;9.894;2022-09-09T17:22:57;1.25;;;1.00;;
25988;SDS011;13778;48.236;9.894;2022-09-09T17:25:55;3.22;;;1.02;;
25988;SDS011;13778;48.236;9.894;2022-09-09T17:28:46;1.20;;;0.80;;
25988;SDS011;13778;48.236;9.894;2022-09-09T17:31:37;1.90;;;0.98;;
25988;SDS011;13778;48.236;9.894;2022-09-09T17:34:27;6.30;;;1.15;;
25988;SDS011;13778;48.236;9.894;2022-09-09T17:37:19;3.35;;;1.08;;
25988;SDS011;13778;48.236;9.894;2022-09-09T17:40:10;1.35;;;0.52;;
25988;SDS011;13778;48.236;9.894;2022-09-09T17:43:00;3.38;;;0.80;;
25988;SDS011;13778;48.236;9.894;2022-09-09T17:45:51;2.53;;;1.00;;
25988;SDS011;13778;48.236;9.894;2022-09-09T17:48:42;1.48;;;1.00;;
25988;SDS011;13778;48.236;9.894;2022-09-09T17:51:33;7.18;;;1.77;;
25988;SDS011;13778;48.236;9.894;2022-09-09T17:54:25;3.00;;;0.93;;
25988;SDS011;13778;48.236;9.894;2022-09-09T17:57:16;3.78;;;1.38;;
25988;SDS011;13778;48.236;9.894;2022-09-09T18:00:08;2.40;;;1.02;;
25988;SDS011;13778;48.236;9.894;2022-09-09T18:02:59;2.35;;;0.68;;
25988;SDS011;13778;48.236;9.894;2022-09-09T18:05:50;1.25;;;0.77;;
25988;SDS011;13778;48.236;9.894;2022-09-09T18:08:40;2.03;;;0.77;;